Time;durP1;ratioP1;P1;durP2;ratioP2;P2;SDS_P1;SDS_P2;PMS_P1;PMS_P2;Temp;Humidity;BMP_temperature;BMP_pressure;BME280_temperature;BME280_humidity;BME280_pressure;Samples;Min_cycle;Max_cycle;Signal;HPM_P1;HPM_P2
2022/03/11 00:00:07;;;;;;;1.40;1.30;;;3.90;99.90;;;;;;5026954;28;20675;-86
2022/03/11 00:02:36;;;;;;;4.03;1.30;;;3.70;99.90;;;;;;5028404;28;20683;-87
2022/03/11 00:05:02;;;;;;;2.17;2.07;;;3.70;99.90;;;;;;5023470;28;20438;-87
2022/03/11 00:07:28;;;;;;;1.20;1.10;;;3.70;99.90;;;;;;5008416;28;20454;-87
2022/03/11 00:09:53;;;;;;;1.73;1.63;;;3.70;99.90;;;;;;5029615;28;20450;-86
2022/03/11 00:12:19;;;;;;;1.77;1.67;;;3.70;99.90;;;;;;5023201;28;20202;-87
2022/03/11 00:14:44;;;;;;;0.90;0.80;;;3.60;99.90;;;;;;5030151;28;20180;-87
2022/03/11 00:17:10;;;;;;;1.20;1.10;;;3.60;99.70;;;;;;5028831;28;20210;-87
2022/03/11 00:19:36;;;;;;;1.00;0.90;;;3.70;99.90;;;;;;5028930;28;20212;-87
2022/03/11 00:22:01;;;;;;;4.37;1.63;;;3.70;99.60;;;;;;5027350;28;20242;-87
2022/03/11 00:24:27;;;;;;;1.00;0.90;;;3.50;99.20;;;;;;5024704;28;20187;-87
2022/03/11 00:26:53;;;;;;;1.57;1.27;;;3.60;99.10;;;;;;5026368;28;20191;-87
2022/03/11 00:29:18;;;;;;;1.30;1.20;;;3.50;99.70;;;;;;5023344;28;20489;-87
2022/03/11 00:31:45;;;;;;;1.30;1.20;;;3.50;98.90;;;;;;5027824;28;20629;-86
2022/03/11 00:34:11;;;;;;;1.10;1.00;;;3.40;98.70;;;;;;5027546;28;20179;-87
2022/03/11 00:36:37;;;;;;;1.10;1.00;;;3.30;99.40;;;;;;5027420;28;20885;-88
2022/03/11 00:39:03;;;;;;;1.00;0.90;;;3.40;99.30;;;;;;5027793;28;20250;-87
2022/03/11 00:41:28;;;;;;;1.00;0.90;;;3.50;98.10;;;;;;5028008;28;20473;-87
2022/03/11 00:43:55;;;;;;;1.43;1.33;;;3.50;97.90;;;;;;5029224;28;20223;-86
2022/03/11 00:46:21;;;;;;;1.00;0.90;;;3.40;98.00;;;;;;5009880;28;20229;-88
2022/03/11 00:48:46;;;;;;;1.00;0.90;;;3.40;98.10;;;;;;5027489;28;20434;-87
2022/03/11 00:51:12;;;;;;;2.60;2.50;;;3.30;98.00;;;;;;5032365;28;20203;-87
2022/03/11 00:53:37;;;;;;;2.23;1.47;;;3.30;98.10;;;;;;5031553;28;20934;-88
2022/03/11 00:56:03;;;;;;;1.10;1.00;;;3.40;97.80;;;;;;5029560;28;20241;-87
2022/03/11 00:58:28;;;;;;;1.10;1.00;;;3.30;97.60;;;;;;5031875;28;20708;-87
2022/03/11 01:00:54;;;;;;;1.03;0.93;;;3.20;98.10;;;;;;5028185;28;20674;-86
2022/03/11 01:03:20;;;;;;;1.53;1.23;;;3.20;97.80;;;;;;5023686;28;20187;-87
2022/03/11 01:05:46;;;;;;;2.67;2.57;;;3.10;97.80;;;;;;5025522;28;20254;-87
2022/03/11 01:08:11;;;;;;;2.07;1.97;;;3.10;97.70;;;;;;5031894;28;20445;-86
2022/03/11 01:10:38;;;;;;;2.30;2.20;;;3.10;97.20;;;;;;5030723;28;20617;-87
2022/03/11 01:13:06;;;;;;;1.63;1.53;;;3.00;97.50;;;;;;5025915;28;20524;-87
2022/03/11 01:15:31;;;;;;;1.00;0.90;;;3.00;97.30;;;;;;5033303;28;20422;-87
2022/03/11 01:17:57;;;;;;;1.47;1.23;;;3.00;97.70;;;;;;5031607;28;20488;-87
2022/03/11 01:20:22;;;;;;;1.50;1.40;;;3.00;97.40;;;;;;5030394;28;20195;-86
2022/03/11 01:22:48;;;;;;;2.47;2.27;;;3.00;96.90;;;;;;5031871;28;20215;-87
2022/03/11 01:25:13;;;;;;;1.40;1.30;;;2.90;96.70;;;;;;5021663;28;20573;-86
2022/03/11 01:27:39;;;;;;;1.10;1.00;;;2.90;97.10;;;;;;5028769;28;20227;-86
2022/03/11 01:30:07;;;;;;;1.10;1.00;;;3.00;96.40;;;;;;5029166;28;20285;-87
2022/03/11 01:32:32;;;;;;;1.10;1.00;;;2.90;96.70;;;;;;5031898;28;20783;-87
2022/03/11 01:34:58;;;;;;;2.87;1.87;;;2.80;96.30;;;;;;5027987;28;20448;-87
2022/03/11 01:37:23;;;;;;;1.00;0.90;;;2.90;96.50;;;;;;5029980;28;20211;-85
2022/03/11 01:39:49;;;;;;;1.00;0.90;;;2.90;96.50;;;;;;5028874;28;20194;-86
2022/03/11 01:42:15;;;;;;;1.00;0.90;;;2.80;96.10;;;;;;5028931;28;20192;-86
2022/03/11 01:44:41;;;;;;;1.00;0.90;;;2.80;96.00;;;;;;5025684;28;20206;-86
2022/03/11 01:47:07;;;;;;;1.00;0.90;;;2.80;96.00;;;;;;5028299;28;21081;-86
2022/03/11 01:49:34;;;;;;;1.00;0.90;;;2.70;96.30;;;;;;5029714;28;20176;-87
2022/03/11 01:51:59;;;;;;;1.10;1.00;;;2.70;96.50;;;;;;5029825;28;20278;-87
2022/03/11 01:54:25;;;;;;;1.00;0.90;;;2.60;96.60;;;;;;5028502;28;20509;-86
2022/03/11 01:56:51;;;;;;;1.20;1.10;;;2.60;95.80;;;;;;5027515;28;20199;-87
2022/03/11 01:59:16;;;;;;;1.10;1.00;;;2.60;96.00;;;;;;5013104;28;20245;-87
2022/03/11 02:01:42;;;;;;;1.40;1.30;;;2.60;95.90;;;;;;5025447;28;20887;-86
2022/03/11 02:04:07;;;;;;;1.40;1.30;;;2.60;96.20;;;;;;5029870;28;20612;-88
2022/03/11 02:06:33;;;;;;;1.87;1.67;;;2.60;96.10;;;;;;5030364;28;20200;-86
2022/03/11 02:09:01;;;;;;;1.10;1.00;;;2.60;96.30;;;;;;5028226;28;20183;-86
2022/03/11 02:11:27;;;;;;;3.37;3.17;;;2.50;95.80;;;;;;5025484;28;20188;-86
2022/03/11 02:13:57;;;;;;;1.30;1.20;;;2.40;96.10;;;;;;5023415;28;20451;-87
2022/03/11 02:16:31;;;;;;;1.50;1.40;;;2.50;96.40;;;;;;5007175;28;20262;-87
2022/03/11 02:18:57;;;;;;;1.00;0.90;;;2.40;95.70;;;;;;5029205;28;20485;-86
2022/03/11 02:21:25;;;;;;;1.00;0.90;;;2.40;96.40;;;;;;5030083;28;20488;-86
2022/03/11 02:23:53;;;;;;;1.60;1.50;;;2.30;95.70;;;;;;5011465;28;20521;-87
2022/03/11 02:26:20;;;;;;;1.00;0.90;;;2.30;96.30;;;;;;5022844;28;20521;-87
2022/03/11 02:28:47;;;;;;;8.43;4.00;;;2.40;95.70;;;;;;5018486;28;20513;-87
2022/03/11 02:31:13;;;;;;;1.17;1.07;;;2.20;96.20;;;;;;5029207;28;20466;-87
2022/03/11 02:33:39;;;;;;;2.10;2.00;;;2.20;96.20;;;;;;5024287;28;20486;-86
2022/03/11 02:36:05;;;;;;;1.53;1.43;;;2.30;96.10;;;;;;5022504;28;20442;-87
2022/03/11 02:38:31;;;;;;;1.20;1.10;;;2.30;95.70;;;;;;5028485;28;20478;-87
2022/03/11 02:40:57;;;;;;;1.10;1.00;;;2.30;96.50;;;;;;5027443;28;20436;-87
2022/03/11 02:43:23;;;;;;;11.00;1.73;;;2.30;95.40;;;;;;5032245;28;20176;-87
2022/03/11 02:45:49;;;;;;;1.10;1.00;;;2.20;96.20;;;;;;5027162;28;20187;-87
2022/03/11 02:48:15;;;;;;;0.83;0.80;;;2.20;95.80;;;;;;5026767;28;20442;-86
2022/03/11 02:50:40;;;;;;;1.10;1.00;;;2.20;95.80;;;;;;5027996;28;20500;-86
2022/03/11 02:53:06;;;;;;;1.10;1.00;;;2.20;95.90;;;;;;5025178;28;20286;-86
2022/03/11 02:55:32;;;;;;;1.00;0.90;;;2.10;95.80;;;;;;5027873;28;20195;-87
2022/03/11 02:57:57;;;;;;;1.33;1.23;;;2.10;95.60;;;;;;5019715;28;20216;-87
2022/03/11 03:00:26;;;;;;;1.10;1.00;;;2.10;95.90;;;;;;5028336;28;20687;-87
2022/03/11 03:02:51;;;;;;;1.40;1.20;;;2.10;95.20;;;;;;5018445;28;20196;-87
2022/03/11 03:05:17;;;;;;;2.70;2.50;;;2.10;95.40;;;;;;5029635;28;20430;-86
2022/03/11 03:07:43;;;;;;;1.43;1.33;;;2.10;95.30;;;;;;5030030;28;20648;-87
2022/03/11 03:10:10;;;;;;;1.53;1.43;;;2.10;95.30;;;;;;5026675;28;20723;-87
2022/03/11 03:12:37;;;;;;;1.10;1.00;;;2.10;95.80;;;;;;5031157;28;20168;-87
2022/03/11 03:15:02;;;;;;;1.00;0.90;;;2.00;95.90;;;;;;5029275;28;20435;-87
2022/03/11 03:17:28;;;;;;;1.40;1.30;;;2.00;96.00;;;;;;5030516;28;20484;-87
2022/03/11 03:19:54;;;;;;;3.20;2.93;;;1.90;96.00;;;;;;5045122;28;20585;-86
2022/03/11 03:22:19;;;;;;;2.80;2.60;;;1.90;95.60;;;;;;5027700;28;20212;-87
2022/03/11 03:24:45;;;;;;;1.20;1.10;;;1.90;95.10;;;;;;5041033;28;20260;-86
2022/03/11 03:27:11;;;;;;;1.20;1.10;;;2.00;95.10;;;;;;5029196;28;20719;-86
2022/03/11 03:29:36;;;;;;;1.10;1.00;;;2.00;95.20;;;;;;5024973;28;20219;-86
2022/03/11 03:32:03;;;;;;;1.20;1.10;;;2.00;95.30;;;;;;5029705;28;20222;-87
2022/03/11 03:34:34;;;;;;;2.33;2.23;;;1.90;95.00;;;;;;5025957;28;20254;-87
2022/03/11 03:37:01;;;;;;;1.10;1.00;;;1.90;94.90;;;;;;5010429;28;20477;-87
2022/03/11 03:39:27;;;;;;;2.60;2.40;;;1.90;95.10;;;;;;5011827;28;20450;-87
2022/03/11 03:41:54;;;;;;;1.30;1.20;;;1.80;95.20;;;;;;5028316;28;20485;-87
2022/03/11 03:44:20;;;;;;;1.40;1.30;;;1.80;95.50;;;;;;5030656;28;20446;-86
2022/03/11 03:46:46;;;;;;;1.20;1.10;;;1.90;94.80;;;;;;5025253;28;20426;-87
2022/03/11 03:49:12;;;;;;;1.07;0.97;;;1.90;94.70;;;;;;5029879;28;20440;-87
2022/03/11 03:51:40;;;;;;;1.20;1.10;;;1.80;95.20;;;;;;5012802;28;20190;-86
2022/03/11 03:54:06;;;;;;;2.30;1.77;;;1.80;95.80;;;;;;5028718;28;20187;-87
2022/03/11 03:56:34;;;;;;;1.00;0.90;;;1.70;96.00;;;;;;5028764;28;20796;-87
2022/03/11 03:59:04;;;;;;;2.10;1.77;;;1.70;95.30;;;;;;5029319;28;20489;-87
2022/03/11 04:01:34;;;;;;;2.17;2.07;;;1.70;95.60;;;;;;5024192;28;20446;-87
2022/03/11 04:04:00;;;;;;;1.20;1.10;;;1.70;95.60;;;;;;5022651;28;20540;-87
2022/03/11 04:06:25;;;;;;;1.10;1.00;;;1.60;95.90;;;;;;5028264;28;20529;-87
2022/03/11 04:08:51;;;;;;;1.27;1.17;;;1.60;95.70;;;;;;5029421;28;21005;-88
2022/03/11 04:11:17;;;;;;;2.27;2.17;;;1.60;95.20;;;;;;5024277;28;20644;-86
2022/03/11 04:13:43;;;;;;;1.97;1.87;;;1.70;95.10;;;;;;5029552;28;20194;-86
2022/03/11 04:16:08;;;;;;;1.10;1.00;;;1.60;95.40;;;;;;5023997;28;20939;-87
2022/03/11 04:18:34;;;;;;;1.00;0.90;;;1.60;95.50;;;;;;5028222;28;20512;-87
2022/03/11 04:21:00;;;;;;;1.97;1.87;;;1.60;95.20;;;;;;5029240;28;20195;-86
2022/03/11 04:23:25;;;;;;;1.10;1.00;;;1.50;95.60;;;;;;5026268;28;20241;-87
2022/03/11 04:25:51;;;;;;;1.83;1.73;;;1.60;94.80;;;;;;5029005;28;20267;-87
2022/03/11 04:28:17;;;;;;;1.10;1.00;;;1.40;95.40;;;;;;5029533;28;20211;-87
2022/03/11 04:30:42;;;;;;;1.00;0.90;;;1.50;96.10;;;;;;5029656;28;20437;-87
2022/03/11 04:33:08;;;;;;;1.20;1.10;;;1.40;95.50;;;;;;5028561;28;20275;-88
2022/03/11 04:35:33;;;;;;;1.00;0.90;;;1.40;95.80;;;;;;5030004;28;20761;-87
2022/03/11 04:37:59;;;;;;;1.83;1.20;;;1.50;95.50;;;;;;5028548;28;20254;-87
2022/03/11 04:40:25;;;;;;;1.00;0.90;;;1.40;95.50;;;;;;5011981;28;20187;-86
2022/03/11 04:42:50;;;;;;;1.13;1.03;;;1.30;95.90;;;;;;5029692;28;20187;-87
2022/03/11 04:45:16;;;;;;;1.10;1.00;;;1.20;96.00;;;;;;5028435;28;20179;-87
2022/03/11 04:47:41;;;;;;;2.10;1.63;;;1.20;95.90;;;;;;5029772;28;20179;-87
2022/03/11 04:50:07;;;;;;;2.07;1.97;;;1.20;96.90;;;;;;5028122;28;20648;-87
2022/03/11 04:52:33;;;;;;;1.20;1.10;;;1.20;96.30;;;;;;5026151;28;20200;-86
2022/03/11 04:54:59;;;;;;;1.10;1.00;;;1.30;95.70;;;;;;5028264;28;20922;-87
2022/03/11 04:57:24;;;;;;;2.23;1.53;;;1.30;95.60;;;;;;5021093;28;20465;-87
2022/03/11 04:59:50;;;;;;;1.80;1.63;;;1.20;96.20;;;;;;5011271;28;20187;-86
2022/03/11 05:02:24;;;;;;;2.03;1.37;;;1.00;96.60;;;;;;5028091;28;20521;-87
2022/03/11 05:04:49;;;;;;;1.00;0.90;;;1.10;96.00;;;;;;5028536;28;20253;-87
2022/03/11 05:07:15;;;;;;;1.20;1.10;;;1.10;95.70;;;;;;5027411;28;20458;-87
2022/03/11 05:09:40;;;;;;;1.13;1.03;;;0.90;96.90;;;;;;5028235;28;20657;-87
2022/03/11 05:12:06;;;;;;;1.50;1.40;;;1.00;96.90;;;;;;5027849;28;20188;-86
2022/03/11 05:14:32;;;;;;;1.47;1.37;;;1.10;95.90;;;;;;5029541;28;20183;-87
2022/03/11 05:16:58;;;;;;;1.47;1.37;;;1.00;96.40;;;;;;5028878;28;20442;-87
2022/03/11 05:19:24;;;;;;;2.10;2.00;;;1.00;96.20;;;;;;5029145;28;20438;-87
2022/03/11 05:21:50;;;;;;;1.10;1.00;;;0.90;96.40;;;;;;5023959;28;20195;-87
2022/03/11 05:24:15;;;;;;;1.53;1.43;;;1.00;95.60;;;;;;5015570;28;20442;-87
2022/03/11 05:26:41;;;;;;;3.13;1.83;;;1.00;96.10;;;;;;5024329;28;20185;-87
2022/03/11 05:29:07;;;;;;;2.73;2.53;;;1.00;95.80;;;;;;5027291;28;20220;-87
2022/03/11 05:31:32;;;;;;;1.20;1.10;;;1.00;95.90;;;;;;5025078;28;20442;-87
2022/03/11 05:33:58;;;;;;;1.10;1.00;;;0.90;96.50;;;;;;5014937;28;20890;-87
2022/03/11 05:36:23;;;;;;;1.20;1.10;;;0.90;96.60;;;;;;5010406;28;20194;-86
2022/03/11 05:38:59;;;;;;;1.50;1.40;;;1.00;95.60;;;;;;5019431;28;20219;-87
2022/03/11 05:44:36;;;;;;;1.10;1.00;;;1.00;95.40;;;;;;4987068;28;20480;-87
2022/03/11 05:47:02;;;;;;;1.83;1.73;;;1.00;95.50;;;;;;5010965;28;20477;-87
2022/03/11 05:49:28;;;;;;;1.13;1.03;;;0.90;96.00;;;;;;5031246;28;20281;-87
2022/03/11 05:51:54;;;;;;;1.10;1.00;;;0.90;95.80;;;;;;5013332;28;20184;-87
2022/03/11 05:54:19;;;;;;;1.10;1.00;;;0.90;95.80;;;;;;5030608;28;20657;-87
2022/03/11 05:56:50;;;;;;;1.10;1.00;;;0.90;95.90;;;;;;5027879;28;20262;-87
2022/03/11 05:59:15;;;;;;;1.20;1.10;;;0.80;95.80;;;;;;5031465;28;20215;-87
2022/03/11 06:01:43;;;;;;;2.53;2.43;;;0.90;95.70;;;;;;5026339;28;20442;-87
2022/03/11 06:04:09;;;;;;;1.20;1.10;;;1.00;95.50;;;;;;5007938;28;20203;-87
2022/03/11 06:06:34;;;;;;;1.50;1.40;;;1.00;95.40;;;;;;5029085;28;20981;-87
2022/03/11 06:09:00;;;;;;;1.10;1.00;;;1.00;95.30;;;;;;5030156;28;20679;-87
2022/03/11 06:12:07;;;;;;;1.30;1.20;;;1.00;95.40;;;;;;5031252;28;20198;-87
2022/03/11 06:14:33;;;;;;;1.07;0.97;;;0.90;95.10;;;;;;5008932;28;20438;-86
2022/03/11 06:17:30;;;;;;;1.00;0.90;;;0.90;94.60;;;;;;5030254;28;21337;-88
2022/03/11 06:20:22;;;;;;;1.40;1.30;;;1.00;94.60;;;;;;5032849;28;20195;-87
2022/03/11 06:22:59;;;;;;;;;;;;;;;;;;;;;
2022/03/11 06:25:28;;;;;;;1.10;1.00;;;1.00;94.70;;;;;;5031791;28;20444;-87
2022/03/11 06:27:57;;;;;;;1.10;1.00;;;1.10;94.10;;;;;;5031352;28;20601;-86
2022/03/11 06:30:31;;;;;;;5.70;2.10;;;1.10;94.00;;;;;;5011944;28;21098;-88
2022/03/11 06:32:56;;;;;;;1.20;1.10;;;1.10;93.90;;;;;;5029789;28;20922;-87
2022/03/11 06:35:22;;;;;;;1.40;1.30;;;1.10;94.30;;;;;;5030058;28;20492;-88
2022/03/11 06:37:51;;;;;;;1.10;1.00;;;1.20;93.70;;;;;;5029834;28;20784;-88
2022/03/11 06:40:56;;;;;;;1.90;1.80;;;1.20;93.80;;;;;;5030849;28;20179;-88
2022/03/11 06:43:54;;;;;;;1.33;1.23;;;1.20;93.80;;;;;;4999184;28;20438;-89
2022/03/11 06:46:29;;;;;;;1.07;0.97;;;1.30;93.70;;;;;;5023286;28;20529;-88
2022/03/11 06:49:05;;;;;;;0.80;0.80;;;1.30;93.60;;;;;;5028033;28;20832;-88
2022/03/11 06:51:34;;;;;;;1.10;1.00;;;1.40;93.30;;;;;;5027512;28;20867;-87
2022/03/11 06:54:10;;;;;;;1.67;1.57;;;1.50;92.90;;;;;;5031026;28;20848;-87
2022/03/11 06:56:42;;;;;;;1.27;1.17;;;1.50;93.10;;;;;;5012006;28;20517;-89
2022/03/11 06:59:08;;;;;;;1.10;1.00;;;1.50;92.70;;;;;;5012073;28;20521;-87
2022/03/11 07:01:36;;;;;;;5.30;1.93;;;1.50;92.80;;;;;;5030638;28;20469;-88
2022/03/11 07:04:02;;;;;;;1.00;0.90;;;1.60;92.30;;;;;;5029434;28;20517;-89
2022/03/11 07:06:54;;;;;;;1.07;0.97;;;1.60;91.90;;;;;;5017515;28;20538;-87
2022/03/11 07:09:20;;;;;;;4.63;2.03;;;1.80;92.10;;;;;;5018324;28;20446;-87
2022/03/11 07:11:46;;;;;;;1.63;1.53;;;1.80;91.70;;;;;;5027908;28;20457;-89
2022/03/11 07:16:59;;;;;;;1.00;0.90;;;1.90;91.30;;;;;;5028805;28;20552;-89
2022/03/11 07:19:28;;;;;;;1.10;1.00;;;1.90;91.50;;;;;;5030221;28;20540;-88
2022/03/11 07:21:58;;;;;;;1.00;0.90;;;2.00;90.90;;;;;;5020161;28;20825;-87
2022/03/11 07:24:24;;;;;;;0.80;0.80;;;2.20;91.10;;;;;;5030307;28;20430;-88
2022/03/11 07:26:49;;;;;;;1.83;1.73;;;2.30;91.00;;;;;;5030480;28;20487;-89
2022/03/11 07:29:15;;;;;;;1.10;1.00;;;2.30;90.60;;;;;;5024151;28;20318;-88
2022/03/11 07:31:47;;;;;;;1.30;1.20;;;2.40;91.10;;;;;;5034720;28;20187;-86
2022/03/11 07:34:20;;;;;;;2.90;2.80;;;2.30;90.00;;;;;;5018361;28;20755;-88
2022/03/11 07:36:46;;;;;;;1.07;0.97;;;2.50;90.10;;;;;;5027763;28;20529;-86
2022/03/11 07:39:12;;;;;;;3.67;2.80;;;2.40;89.20;;;;;;5025529;28;20614;-86
2022/03/11 07:41:43;;;;;;;1.20;1.10;;;2.50;89.90;;;;;;5022896;28;20767;-88
2022/03/11 07:50:11;;;;;;;1.10;1.00;;;2.50;88.40;;;;;;5013880;28;20437;-88
2022/03/11 07:52:49;;;;;;;1.10;1.00;;;2.50;88.00;;;;;;5029014;28;20465;-88
2022/03/11 07:55:43;;;;;;;1.00;0.90;;;2.50;87.00;;;;;;5025739;28;20488;-89
2022/03/11 07:58:11;;;;;;;1.27;1.17;;;2.60;86.80;;;;;;5011481;28;20489;-88
2022/03/11 08:00:41;;;;;;;1.00;0.90;;;2.80;87.10;;;;;;5006522;28;20450;-88
2022/03/11 08:03:42;;;;;;;1.37;1.27;;;2.50;85.30;;;;;;5004762;28;20446;-87
2022/03/11 08:06:08;;;;;;;1.43;1.33;;;2.50;85.80;;;;;;4993941;28;20459;-87
2022/03/11 08:09:30;;;;;;;1.60;1.50;;;2.80;86.30;;;;;;5011154;28;20454;-85
2022/03/11 08:11:56;;;;;;;1.03;0.93;;;2.70;84.60;;;;;;5026278;28;20875;-88
2022/03/11 08:15:01;;;;;;;1.70;1.60;;;2.80;86.30;;;;;;5013004;28;20447;-88
2022/03/11 08:17:26;;;;;;;1.00;0.90;;;2.80;85.00;;;;;;5024797;28;20203;-87
2022/03/11 08:19:52;;;;;;;1.10;1.00;;;3.20;84.40;;;;;;5030339;28;20430;-89
2022/03/11 08:22:17;;;;;;;1.17;1.07;;;3.20;83.90;;;;;;5030764;28;20191;-88
2022/03/11 08:25:26;;;;;;;1.23;1.13;;;3.10;82.70;;;;;;5029390;28;20184;-90
2022/03/11 08:31:38;;;;;;;1.40;1.30;;;3.30;81.90;;;;;;4946798;28;20481;-86
2022/03/11 08:34:04;;;;;;;2.07;1.97;;;3.80;81.70;;;;;;5027568;28;20446;-87
2022/03/11 08:36:29;;;;;;;1.53;1.43;;;3.60;82.80;;;;;;5026690;28;20199;-87
2022/03/11 08:38:55;;;;;;;2.20;2.10;;;4.00;81.20;;;;;;5012846;28;20220;-88
2022/03/11 08:41:22;;;;;;;1.00;0.90;;;3.90;79.40;;;;;;5021282;28;20212;-88
2022/03/11 08:43:49;;;;;;;2.07;1.97;;;3.70;78.30;;;;;;5019019;28;20187;-88
2022/03/11 08:46:15;;;;;;;1.90;1.80;;;3.80;78.30;;;;;;5029111;28;20453;-87
2022/03/11 08:48:43;;;;;;;1.20;1.10;;;4.00;78.60;;;;;;5026741;28;20946;-88
2022/03/11 08:51:09;;;;;;;0.97;0.87;;;4.10;77.30;;;;;;5073282;23;20927;-91
2022/03/11 08:53:34;;;;;;;2.03;1.93;;;4.00;77.00;;;;;;5011652;28;20539;-86
2022/03/11 08:56:00;;;;;;;1.00;0.90;;;4.10;77.00;;;;;;5024085;28;20740;-89
2022/03/11 08:58:25;;;;;;;1.00;0.90;;;4.50;78.20;;;;;;5026871;28;20226;-88
2022/03/11 09:00:51;;;;;;;1.77;1.10;;;5.00;76.90;;;;;;5029673;28;20680;-87
2022/03/11 09:03:16;;;;;;;1.10;1.00;;;5.50;78.00;;;;;;5021514;28;20223;-88
2022/03/11 09:05:42;;;;;;;1.87;1.77;;;5.30;75.10;;;;;;5031931;28;20240;-87
2022/03/11 09:08:08;;;;;;;0.80;0.70;;;5.00;72.10;;;;;;5029798;28;20195;-87
2022/03/11 09:10:34;;;;;;;1.73;1.30;;;4.80;73.50;;;;;;5034527;28;20263;-87
2022/03/11 09:13:00;;;;;;;1.50;1.40;;;4.60;71.50;;;;;;5013567;28;20198;-86
2022/03/11 09:15:26;;;;;;;3.40;2.90;;;5.00;71.30;;;;;;5027677;28;20457;-87
2022/03/11 09:17:51;;;;;;;0.90;0.70;;;5.20;72.40;;;;;;5012967;28;20231;-88
2022/03/11 09:20:17;;;;;;;1.30;1.20;;;5.40;71.90;;;;;;5015066;28;20237;-87
2022/03/11 09:22:43;;;;;;;1.00;0.90;;;5.70;73.50;;;;;;5027964;28;20211;-86
2022/03/11 09:25:11;;;;;;;1.10;1.00;;;6.00;70.40;;;;;;5025193;28;20188;-88
2022/03/11 09:27:37;;;;;;;0.90;0.80;;;6.10;69.70;;;;;;4999071;28;20625;-88
2022/03/11 09:30:06;;;;;;;1.00;0.90;;;6.20;70.70;;;;;;5011987;28;20483;-88
2022/03/11 09:32:31;;;;;;;0.90;0.70;;;6.30;68.60;;;;;;5031003;28;21078;-88
2022/03/11 09:34:58;;;;;;;0.90;0.80;;;6.60;68.50;;;;;;5032548;28;20475;-88
2022/03/11 09:37:24;;;;;;;7.40;3.67;;;6.40;67.70;;;;;;5028934;28;20180;-86
2022/03/11 09:39:49;;;;;;;0.90;0.80;;;6.60;67.30;;;;;;5025886;28;20611;-87
2022/03/11 09:42:15;;;;;;;1.00;0.90;;;6.20;65.00;;;;;;5027722;23;20291;-89
2022/03/11 09:44:47;;;;;;;0.90;0.77;;;6.10;65.10;;;;;;4995312;28;20200;-89
2022/03/11 09:47:14;;;;;;;2.30;1.33;;;6.50;63.70;;;;;;5009987;28;20184;-88
2022/03/11 09:49:40;;;;;;;0.90;0.80;;;6.50;64.80;;;;;;5018481;28;20482;-87
2022/03/11 09:52:06;;;;;;;1.20;1.00;;;6.80;62.70;;;;;;5007828;23;20487;-88
2022/03/11 09:54:33;;;;;;;0.90;0.80;;;6.50;61.50;;;;;;5011300;28;20559;-89
2022/03/11 09:56:58;;;;;;;1.53;1.43;;;6.30;60.90;;;;;;5002113;28;20444;-89
2022/03/11 09:59:24;;;;;;;0.93;0.80;;;7.10;62.30;;;;;;5021067;28;20497;-86
2022/03/11 10:01:49;;;;;;;1.30;1.20;;;7.20;62.60;;;;;;5011148;28;20314;-89
2022/03/11 10:04:15;;;;;;;1.13;1.03;;;7.40;62.00;;;;;;5002610;28;20275;-89
2022/03/11 10:06:46;;;;;;;0.90;0.70;;;7.60;60.10;;;;;;5003056;28;20216;-88
2022/03/11 10:09:17;;;;;;;0.90;0.70;;;7.50;59.90;;;;;;4997149;28;20194;-87
2022/03/11 10:11:46;;;;;;;1.27;1.17;;;7.30;59.10;;;;;;5010737;28;20951;-87
2022/03/11 10:14:12;;;;;;;1.83;1.73;;;7.50;59.50;;;;;;5006226;28;21095;-88
2022/03/11 10:16:37;;;;;;;0.90;0.70;;;8.30;60.80;;;;;;5008947;28;20785;-88
2022/03/11 10:19:08;;;;;;;0.90;0.70;;;8.70;58.90;;;;;;4991587;28;20497;-88
2022/03/11 10:21:41;;;;;;;1.20;1.07;;;8.90;59.80;;;;;;5012387;28;20280;-88
2022/03/11 10:24:11;;;;;;;1.20;0.77;;;9.00;58.40;;;;;;5038595;23;20946;-86
2022/03/11 10:26:51;;;;;;;0.90;0.70;;;8.60;56.70;;;;;;5033658;28;20469;-86
2022/03/11 10:29:32;;;;;;;1.60;1.50;;;8.20;57.80;;;;;;5011785;28;20450;-89
2022/03/11 10:31:58;;;;;;;2.33;1.33;;;8.80;59.10;;;;;;5015261;28;21011;-86
2022/03/11 10:34:32;;;;;;;0.90;0.70;;;9.30;56.40;;;;;;5034092;28;20442;-86
2022/03/11 10:37:00;;;;;;;0.90;0.60;;;9.80;56.20;;;;;;5031543;28;20446;-86
2022/03/11 10:39:29;;;;;;;1.03;0.93;;;9.20;55.50;;;;;;5025800;28;20505;-87
2022/03/11 10:41:58;;;;;;;1.10;1.00;;;9.30;55.00;;;;;;5013967;28;20477;-86
2022/03/11 10:44:26;;;;;;;1.60;1.10;;;9.80;56.70;;;;;;5028992;28;20460;-86
2022/03/11 10:47:16;;;;;;;2.17;1.33;;;10.00;54.60;;;;;;5029698;28;20492;-86
2022/03/11 10:49:51;;;;;;;1.13;1.03;;;10.10;51.80;;;;;;5026548;28;20954;-88
2022/03/11 10:52:33;;;;;;;1.10;0.90;;;10.60;52.50;;;;;;5011037;28;20449;-87
2022/03/11 10:55:00;;;;;;;1.30;0.73;;;10.40;51.70;;;;;;4997725;28;20456;-87
2022/03/11 10:57:37;;;;;;;1.40;1.30;;;10.90;51.80;;;;;;5029882;28;20546;-87
2022/03/11 11:00:29;;;;;;;1.10;0.93;;;10.50;49.20;;;;;;5027745;28;20928;-86
2022/03/11 11:02:57;;;;;;;1.00;0.90;;;11.10;52.20;;;;;;5002685;28;20434;-87
2022/03/11 11:05:24;;;;;;;3.60;2.10;;;10.90;51.10;;;;;;5028060;28;20443;-88
2022/03/11 11:07:50;;;;;;;1.10;0.70;;;11.10;50.50;;;;;;5040156;28;20441;-87
2022/03/11 11:10:18;;;;;;;1.00;0.60;;;11.00;50.20;;;;;;5045177;23;20491;-87
2022/03/11 11:12:44;;;;;;;0.90;0.70;;;11.00;48.20;;;;;;5008488;28;20443;-86
2022/03/11 11:15:12;;;;;;;0.90;0.67;;;10.40;47.60;;;;;;5009988;28;20512;-87
2022/03/11 11:17:39;;;;;;;0.90;0.63;;;10.70;46.20;;;;;;5036764;23;20490;-87
2022/03/11 11:20:40;;;;;;;1.47;1.37;;;11.10;47.10;;;;;;5013935;28;20443;-87
2022/03/11 11:23:09;;;;;;;0.90;0.70;;;11.40;48.10;;;;;;4979583;28;20446;-87
2022/03/11 11:25:40;;;;;;;0.90;0.80;;;11.30;47.90;;;;;;5012716;28;20431;-87
2022/03/11 11:28:14;;;;;;;1.43;1.20;;;12.10;48.30;;;;;;5016759;28;20446;-88
2022/03/11 11:30:47;;;;;;;1.03;0.93;;;12.10;46.80;;;;;;5022655;28;20438;-87
2022/03/11 11:33:18;;;;;;;0.90;0.50;;;12.30;46.00;;;;;;5024891;28;20443;-88
2022/03/11 11:35:44;;;;;;;1.00;0.67;;;12.60;46.40;;;;;;5008690;28;20469;-87
2022/03/11 11:38:28;;;;;;;1.63;1.33;;;12.60;44.50;;;;;;5026735;28;20884;-86
2022/03/11 11:40:56;;;;;;;1.10;0.90;;;12.10;43.40;;;;;;5024724;28;20235;-85
2022/03/11 11:43:26;;;;;;;2.37;1.00;;;12.10;44.60;;;;;;5020587;28;20437;-87
2022/03/11 11:45:52;;;;;;;1.20;1.10;;;13.00;44.50;;;;;;5017687;28;21021;-86
2022/03/11 11:48:33;;;;;;;1.43;0.90;;;13.10;44.50;;;;;;5029159;28;20422;-87
2022/03/11 11:51:01;;;;;;;0.90;0.60;;;13.60;46.20;;;;;;5010466;28;20969;-87
2022/03/11 11:53:53;;;;;;;1.00;0.70;;;14.30;41.80;;;;;;5025909;28;20431;-87
2022/03/11 11:56:32;;;;;;;1.30;0.87;;;12.60;42.70;;;;;;5015820;28;20523;-87
2022/03/11 11:59:02;;;;;;;1.30;1.20;;;12.30;41.90;;;;;;5009873;28;20481;-87
2022/03/11 12:01:39;;;;;;;0.90;0.60;;;12.20;43.20;;;;;;5023168;28;20431;-87
2022/03/11 12:04:28;;;;;;;0.90;0.50;;;13.10;42.80;;;;;;5028854;28;20449;-87
2022/03/11 12:07:09;;;;;;;4.10;1.17;;;13.10;40.90;;;;;;5030305;28;20521;-86
2022/03/11 12:09:41;;;;;;;0.80;0.50;;;13.00;41.20;;;;;;5028821;28;20521;-85
2022/03/11 12:12:08;;;;;;;0.87;0.53;;;12.70;40.00;;;;;;5029636;28;20461;-86
2022/03/11 12:14:53;;;;;;;0.90;0.60;;;13.00;40.10;;;;;;5029015;28;21144;-87
2022/03/11 12:17:37;;;;;;;0.90;0.60;;;13.40;43.50;;;;;;5010217;28;20507;-86
2022/03/11 12:20:33;;;;;;;11.10;2.43;;;13.80;41.20;;;;;;5029987;28;20504;-87
2022/03/11 12:23:12;;;;;;;0.80;0.50;;;13.40;39.90;;;;;;5036127;28;20437;-88
2022/03/11 12:25:44;;;;;;;5.50;1.40;;;13.60;39.40;;;;;;5029528;28;20422;-88
2022/03/11 12:28:25;;;;;;;0.80;0.50;;;14.10;42.80;;;;;;5012034;28;21271;-87
2022/03/11 12:30:50;;;;;;;0.90;0.67;;;14.50;39.80;;;;;;5020978;28;20511;-86
2022/03/11 12:33:19;;;;;;;0.90;0.50;;;14.60;39.60;;;;;;5019146;28;20526;-87
2022/03/11 12:35:56;;;;;;;0.80;0.50;;;14.50;39.50;;;;;;5030399;28;20187;-87
2022/03/11 12:38:24;;;;;;;0.80;0.50;;;14.60;38.40;;;;;;5008152;28;21057;-89
2022/03/11 12:40:51;;;;;;;1.00;0.73;;;15.20;39.90;;;;;;5026550;28;20485;-87
2022/03/11 12:43:20;;;;;;;2.63;2.40;;;16.10;40.90;;;;;;5027826;28;20470;-89
2022/03/11 12:45:56;;;;;;;0.80;0.50;;;15.30;41.40;;;;;;5030471;28;20500;-90
2022/03/11 12:48:34;;;;;;;3.20;0.93;;;15.30;38.20;;;;;;5026501;28;20446;-87
2022/03/11 12:51:01;;;;;;;0.90;0.50;;;15.30;39.00;;;;;;5014550;28;20812;-88
2022/03/11 12:53:26;;;;;;;1.63;1.53;;;15.90;39.60;;;;;;5012129;28;21005;-88
2022/03/11 12:55:54;;;;;;;1.47;0.80;;;15.40;37.90;;;;;;5012208;28;20444;-87
2022/03/11 12:58:28;;;;;;;1.00;0.77;;;15.00;37.70;;;;;;5029337;28;20245;-88
2022/03/11 13:00:57;;;;;;;1.10;0.70;;;15.10;38.10;;;;;;5025179;28;20965;-87
2022/03/11 13:03:31;;;;;;;0.80;0.50;;;15.70;38.70;;;;;;5029713;28;20446;-93
2022/03/11 13:05:58;;;;;;;1.73;1.43;;;15.50;37.30;;;;;;5037969;23;20521;-86
2022/03/11 13:08:24;;;;;;;1.57;0.60;;;15.90;37.80;;;;;;5024584;28;20454;-88
2022/03/11 13:10:52;;;;;;;1.33;1.07;;;16.50;37.60;;;;;;5032141;28;20524;-87
2022/03/11 13:13:20;;;;;;;1.60;1.50;;;15.90;37.10;;;;;;5035536;23;20253;-88
2022/03/11 13:15:49;;;;;;;1.53;1.27;;;16.20;39.40;;;;;;5029739;28;20457;-88
2022/03/11 13:18:20;;;;;;;2.23;1.27;;;16.60;39.70;;;;;;5039644;23;20501;-88
2022/03/11 13:21:17;;;;;;;2.57;1.43;;;15.80;38.60;;;;;;5030323;28;20531;-86